Latest Coastal Weather Observations for Hobart Airport

IDT60701

Issued at 4:41 pm EDT Saturday 31 January 2015 (issued every 10 minutes, with the page automatically refreshed every 10 minutes)

About coastal observations | Map of coastal stations | Coastal observations for TAS | Marine services | Other Formats
Station Details ID: 094008 Name: HOBART AIRPORT Lat: -42.83 Lon: 147.50 Height: 4.0 m
Data from the previous 72 hours. | See also: Recent months at Hobart Airport
Date/Time
EDT
Temp

°C
Wind Pressure Rain
since 9am
mm
Weather Cloud Vis
km
Sea
Height
m
Swell
Dir
 
Speed
knots
Gust
knots
hPa Trend Height
m
Period
s
Dir
31/04:30pm 14.3 SSW 13 18 1011.1 - 2.0 Rain Mostly clear 7 - - - -
31/04:00pm 14.2 SSW 13 18 1011.0 - 2.0 - Mostly clear 8 - - - -
31/03:30pm 14.0 SSW 12 17 1011.0 - 1.6 Rain Partly cloudy 6 - - - -
31/03:00pm 14.3 SSW 14 20 1010.9 R 1.6 Rain Cloudy 5 - - - -
31/02:52pm 14.1 SSW 16 21 1010.9 - 1.6 Rain Mostly clear 5 - - - -
31/02:30pm 14.3 SSW 14 21 1010.9 - 1.6 - Mostly clear 10 - - - -
31/02:00pm 14.3 SSW 16 26 1011.1 - 1.6 - Mostly clear 7 - - - -
31/01:56pm 14.1 SSW 15 26 1011.1 - 1.6 Rain Mostly clear 7 - - - -
31/01:30pm 13.9 SSW 13 19 1011.2 - 1.4 Rain Partly cloudy 6 - - - -
31/01:00pm 14.0 SSW 16 20 1011.3 - 1.2 - Mostly clear 6 - - - -
31/12:30pm 14.0 SSW 17 24 1011.2 - 1.2 Rain Partly cloudy 6 - - - -
31/12:00pm 13.9 SSW 15 22 1011.3 R 0.8 Rain Cloudy 6 - - - -
31/11:30am 13.8 SSW 16 22 1011.5 - 0.6 Rain Partly cloudy 4 - - - -
31/10:56am 13.9 SSW 17 27 1011.6 - 0.6 Drizzle Partly cloudy 7 - - - -
31/10:30am 13.7 SSW 14 22 1011.7 - 0.4 Rain Partly cloudy 5 - - - -
31/10:00am 13.7 SSW 15 20 1011.8 - 0.4 - Mostly cloudy 4 - - - -
31/09:30am 13.7 S 16 22 1011.8 - 0.0 Rain Partly cloudy 4 - - - -
31/09:00am 13.5 S 17 23 1011.8 F 7.2 Rain Cloudy 4 - - - -
31/08:59am 13.5 S 17 23 1011.8 - 7.2 Rain Partly cloudy 4 - - - -
31/08:30am 13.5 S 15 23 1011.7 - 7.0 Drizzle Partly cloudy 5 - - - -
31/08:00am 13.5 S 15 22 1011.6 - 6.0 - Partly cloudy 4 - - - -
31/07:30am 13.4 S 14 21 1011.6 - 5.0 Rain Mostly cloudy 4 - - - -
31/07:00am 13.3 S 17 22 1011.6 - 4.4 - Mostly cloudy 5 - - - -
31/06:47am 13.2 S 17 24 1011.6 - 4.2 Rain Partly cloudy 6 - - - -
31/06:30am 13.2 SSW 14 19 1011.6 - 4.0 Rain Mostly cloudy 4 - - - -
31/06:00am 13.2 S 17 26 1011.5 F 3.8 Rain Cloudy 5 - - - -
31/05:30am 13.3 SSW 17 23 1011.3 - 3.0 Rain Cloudy 5 - - - -
31/05:15am 13.3 SSW 16 23 1011.2 - 2.6 Rain Cloudy 5 - - - -
31/05:00am 13.3 SSW 15 21 1011.2 - 2.6 - Cloudy 8 - - - -
31/04:54am 13.3 SSW 14 21 1011.3 - 2.6 Rain Cloudy 8 - - - -
31/04:30am 13.1 SSW 15 21 1011.4 - 2.4 Rain Cloudy 5 - - - -
31/04:00am 13.0 SSW 14 18 1011.7 - 2.2 - Cloudy 5 - - - -
31/03:30am 12.8 SSW 15 20 1011.9 - 1.6 Rain Partly cloudy 5 - - - -
31/03:00am 12.9 SSW 13 18 1012.1 F 1.4 Rain Cloudy 5 - - - -
31/02:00am 12.7 SSW 14 20 1012.7 - 1.2 - Partly cloudy 5 - - - -
31/01:30am 12.6 SSW 12 19 1012.9 - 0.8 Rain Partly cloudy 6 - - - -
31/01:00am 12.5 SSW 15 21 1013.1 - 0.8 - Partly cloudy 6 - - - -
31/12:30am 12.1 SSW 15 20 1013.3 - 0.8 Rain Partly cloudy 6 - - - -
 
Date/Time
EDT
Temp

°C
Wind Pressure Rain
since 9am
mm
Weather Cloud Vis
km
Sea
Height
m
Swell
Dir
 
Speed
knots
Gust
knots
hPa Trend Height
m
Period
s
Dir
30/11:30pm 12.4 SSW 12 16 1014.0 - 0.6 Rain Mostly clear 6 - - - -
30/11:19pm 12.4 SSW 15 22 1014.2 - 0.6 Rain Mostly clear 8 - - - -
30/11:00pm 12.5 SSW 17 22 1014.3 - 0.6 - Mostly clear 5 - - - -
30/10:53pm 12.9 S 15 21 1014.4 - 0.4 Rain Mostly clear 6 - - - -
30/10:30pm 13.4 S 20 26 1014.5 - 0.4 Rain Mostly clear 8 - - - -
30/10:00pm 13.9 S 17 22 1014.6 - 0.4 - Mostly cloudy 10 - - - -
30/09:30pm 14.0 SSW 18 28 1014.9 - 0.4 Rain Mostly clear 10 - - - -
30/09:20pm 14.2 S 18 29 1014.9 - 0.4 Rain Mostly clear 10 - - - -
30/09:00pm 14.2 S 18 26 1014.9 F 0.4 Showers Mostly cloudy 20 - - - -
30/08:30pm 14.3 S 17 26 1014.9 - 0.4 - Mostly clear 10 - - - -
30/08:00pm 14.3 S 18 26 1015.1 - 0.4 - Mostly clear 10 - - - -
30/07:30pm 14.5 S 16 22 1015.1 - 0.4 - Mostly clear 10 - - - -
30/07:00pm 14.9 S 18 25 1015.1 - 0.4 - Partly cloudy 10 - - - -
30/06:30pm 14.6 SSW 17 23 1015.3 - 0.4 - Mostly clear 10 - - - -
30/06:00pm 14.2 S 16 25 1015.6 F 0.4 Showers Mostly cloudy 20 - - - -
30/05:30pm 15.3 S 16 21 1015.9 - 0.4 - Mostly clear 10 - - - -
30/05:00pm 15.1 S 18 22 1016.2 - 0.4 - Mostly clear 9 - - - -
30/04:30pm 15.6 S 17 25 1016.4 - 0.4 - Mostly clear 10 - - - -
30/04:00pm 14.3 SSE 18 25 1016.6 - 0.4 - Mostly clear 10 - - - -
30/03:44pm 15.4 S 18 29 1016.6 - 0.4 - Partly cloudy 10 - - - -
30/03:30pm 15.4 S 18 26 1016.7 - 0.4 - Mostly clear 10 - - - -
30/03:00pm 14.9 S 17 22 1016.9 R 0.4 Showers Mostly cloudy 20 - - - -
30/02:30pm 15.5 SSE 18 25 1017.2 - 0.4 - Mostly clear 10 - - - -
30/02:00pm 15.8 SSE 20 26 1017.3 - 0.4 - Mostly clear 10 - - - -
30/01:30pm 15.3 S 19 24 1017.4 - 0.4 - Mostly clear 10 - - - -
30/01:03pm 15.4 SSE 19 30 1017.7 - 0.4 Showers Mostly clear 3 - - - -
30/01:00pm 15.5 SSE 19 22 1017.5 - 0.4 - Mostly clear 10 - - - -
30/12:42pm 16.3 S 18 28 1017.6 - 0.2 - Mostly clear 10 - - - -
30/12:30pm 16.5 S 21 27 1017.8 - 0.2 - Mostly clear 10 - - - -
30/12:00pm 15.1 S 22 29 1018.1 F 0.2 Distant precip. Mostly cloudy 30 - - - -
30/11:33am 16.1 S 20 30 1018.2 - 0.0 - Mostly clear 10 - - - -
30/11:30am 15.2 SSE 19 27 1018.3 - 0.0 - Mostly clear 10 - - - -
30/11:00am 13.8 S 22 30 1018.7 - 0.0 - Mostly clear 10 - - - -
30/10:30am 14.8 S 18 26 1019.0 - 0.0 - Mostly clear 10 - - - -
30/10:00am 13.5 SSE 19 27 1019.3 - 0.0 - Mostly clear 10 - - - -
30/09:30am 14.2 SSE 16 21 1019.3 - 0.0 - Mostly clear 10 - - - -
30/09:00am 13.0 SSE 17 23 1019.4 F 0.4 Showers Mostly cloudy 25 - - - -
30/08:45am 12.6 S 17 22 1019.6 - 0.4 - Mostly clear 8 - - - -
30/08:42am 12.5 SSE 17 22 1019.6 - 0.4 Showers Mostly clear 2 - - - -
30/08:40am 12.5 SSE 17 22 1019.6 - 0.4 - Mostly clear 10 - - - -
30/08:30am 12.4 S 17 23 1019.6 - 0.4 Showers Mostly clear 6 - - - -
30/08:18am 12.5 SSE 19 29 1019.5 - 0.2 Showers Mostly clear 6 - - - -
30/08:12am 13.2 SSE 18 27 1019.5 - 0.0 Showers Mostly clear 2 - - - -
30/08:00am 12.9 SSE 15 25 1019.3 - 0.0 - Mostly clear 6 - - - -
30/07:58am 13.4 SSE 14 19 1019.3 - 0.0 Showers Partly cloudy 2 - - - -
30/07:30am 13.7 SSE 18 23 1019.3 - 0.0 - Mostly clear 10 - - - -
30/07:00am 13.8 SSE 15 19 1019.2 - 0.0 - Mostly clear 10 - - - -
30/06:30am 13.7 SSE 18 23 1019.3 - 0.0 - Mostly clear 10 - - - -
30/06:00am 13.3 SSE 19 25 1019.5 F 0.0 Distant precip. Mostly cloudy 30 - - - -
30/05:30am 13.5 SSE 17 24 1019.5 - 0.0 - Mostly clear 10 - - - -
30/05:00am 13.2 SSE 16 21 1019.6 - 0.0 - Mostly clear 10 - - - -
30/04:30am 13.4 SSE 16 23 1019.8 - 0.0 Showers Partly cloudy 10 - - - -
30/04:00am 13.4 S 17 22 1020.1 - 0.0 - Partly cloudy 10 - - - -
30/03:36am 13.3 SSE 14 19 1020.4 - 0.0 - Partly cloudy 10 - - - -
30/03:30am 13.1 SSE 14 19 1020.4 - 0.0 Showers Partly cloudy 10 - - - -
30/03:00am 13.8 SSE 15 20 1020.6 F 0.0 Showers Mostly cloudy 20 - - - -
30/02:30am 13.6 SSE 15 21 1021.2 - 0.0 - Cloudy 10 - - - -
30/02:00am 13.4 SSE 14 18 1021.4 - 0.0 - Mostly clear 10 - - - -
30/01:30am 13.4 SSE 17 22 1021.8 - 0.0 - Mostly clear 10 - - - -
30/01:03am 13.5 SSE 15 27 1022.1 - 0.0 - Mostly clear 10 - - - -
30/01:00am 13.6 SSE 13 18 1022.1 - 0.0 - Mostly clear 10 - - - -
30/12:30am 13.3 SSE 15 18 1022.5 - 0.0 - Mostly clear 10 - - - -
30/12:00am 13.4 SE 14 20 1022.8 F 0.0 Showers Mostly cloudy 20 - - - -
 
Date/Time
EDT
Temp

°C
Wind Pressure Rain
since 9am
mm
Weather Cloud Vis
km
Sea
Height
m
Swell
Dir
 
Speed
knots
Gust
knots
hPa Trend Height
m
Period
s
Dir
29/11:30pm 13.5 SE 15 19 1022.8 - 0.0 - Mostly clear 10 - - - -
29/11:00pm 13.3 SSE 15 21 1023.1 - 0.0 - Mostly clear 10 - - - -
29/10:30pm 13.6 SSE 18 26 1023.1 - 0.0 - Mostly clear 10 - - - -
29/10:00pm 13.7 SSE 17 23 1023.2 - 0.0 - Mostly clear 10 - - - -
29/09:30pm 13.4 SSE 14 19 1023.4 - 0.0 - Mostly clear 10 - - - -
29/09:00pm 13.0 SSE 15 19 1023.5 F 0.0 Fine Mostly cloudy 30 - - - -
29/08:30pm 13.6 SSE 16 21 1023.5 - 0.0 - Partly cloudy 10 - - - -
29/08:00pm 13.9 SSE 15 20 1023.5 - 0.0 - Partly cloudy 10 - - - -
29/07:30pm 14.2 SSE 18 23 1023.4 - 0.0 - Partly cloudy 10 - - - -
29/07:00pm 13.5 S 16 21 1023.5 - 0.0 - Partly cloudy 10 - - - -
29/06:30pm 14.5 S 18 22 1023.4 - 0.0 - Partly cloudy 10 - - - -
29/06:00pm 14.6 SSE 16 21 1023.5 F 0.0 Fine Mostly cloudy 30 - - - -
29/05:30pm 13.7 S 12 18 1023.9 - 0.0 - Mostly clear 10 - - - -
29/05:00pm 14.4 SSE 17 21 1024.1 - 0.0 - Mostly clear 10 - - - -
29/04:30pm 14.5 S 18 26 1024.0 - 0.0 - Mostly clear 10 - - - -
29/04:00pm 14.6 S 18 23 1024.2 - 0.0 - Mostly clear 10 - - - -
29/03:30pm 15.2 SSE 16 22 1024.3 - 0.0 - Partly cloudy 10 - - - -
29/03:00pm 15.6 SSE 18 22 1024.4 R 0.0 Distant precip. Mostly cloudy 25 - - - -
29/02:30pm 14.9 SSE 17 21 1024.7 - 0.0 - Partly cloudy 10 - - - -
29/02:00pm 15.3 S 15 21 1024.7 - 0.0 - Partly cloudy 10 - - - -
29/01:30pm 14.0 S 15 19 1025.1 - 0.0 - Partly cloudy 10 - - - -
29/01:00pm 15.0 SSE 17 22 1025.0 - 0.0 - Partly cloudy 10 - - - -
29/12:30pm 14.9 SSE 14 17 1025.4 - 0.0 - Partly cloudy 10 - - - -
29/12:00pm 15.3 SSE 16 22 1025.5 R 0.0 Distant precip. Cloudy 30 - - - -
29/11:30am 14.6 SSE 17 22 1025.7 - 0.0 - Partly cloudy 10 - - - -
29/11:00am 14.7 SSE 17 22 1025.5 - 0.0 - Mostly clear 10 - - - -
29/10:30am 14.8 SSE 15 20 1025.6 - 0.0 - Mostly clear 10 - - - -
29/10:00am 14.8 SSE 15 20 1025.6 - 0.0 - Mostly clear 10 - - - -
29/09:30am 14.4 SSE 15 20 1025.6 - 0.0 - Mostly clear 10 - - - -
29/09:00am 14.2 SSE 16 21 1025.6 R 0.4 Fine Mostly cloudy 30 - - - -
29/08:30am 13.7 SSE 11 15 1025.5 - 0.4 - Mostly clear 10 - - - -
29/08:00am 13.0 S 9 14 1025.3 - 0.4 - Mostly clear 10 - - - -
29/07:30am 12.2 SSW 9 12 1025.3 - 0.4 - Mostly clear 10 - - - -
29/07:00am 12.7 S 15 18 1025.1 - 0.4 - Mostly clear 10 - - - -
29/06:30am 13.3 SSE 13 17 1024.9 - 0.4 - Mostly clear 10 - - - -
29/06:00am 13.0 SSE 12 16 1024.7 F 0.4 Distant precip. Partly cloudy 40 - - - -
29/05:30am 12.9 SSE 11 15 1024.7 - 0.4 - Mostly clear 10 - - - -
29/05:00am 13.3 SE 12 17 1024.5 - 0.4 - Mostly clear 10 - - - -
29/04:30am 13.5 SSE 13 17 1024.4 - 0.4 - Mostly clear 10 - - - -
29/04:00am 13.5 SSE 13 18 1024.3 - 0.4 - Mostly clear 10 - - - -
29/03:30am 13.2 SE 10 15 1024.6 - 0.4 - Mostly clear 10 - - - -
29/03:00am 13.2 SSE 11 16 1024.8 F 0.4 Fine Mostly cloudy 40 - - - -
29/02:30am 13.2 SE 9 13 1024.9 - 0.4 - Mostly clear 10 - - - -
29/02:00am 12.3 SSE 9 14 1025.1 - 0.4 - Partly cloudy 10 - - - -
29/01:30am 11.9 SSW 7 9 1025.2 - 0.4 - Mostly clear 10 - - - -
29/01:00am 11.8 SSW 8 11 1025.4 - 0.4 - Mostly clear 10 - - - -
29/12:30am 11.8 SSW 5 7 1025.6 - 0.4 - Mostly clear 10 - - - -
29/12:00am 11.9 S 7 10 1025.8 F 0.4 Recent precip. Mostly cloudy 40 - - - -
 
Date/Time
EDT
Temp

°C
Wind Pressure Rain
since 9am
mm
Weather Cloud Vis
km
Sea
Height
m
Swell
Dir
 
Speed
knots
Gust
knots
hPa Trend Height
m
Period
s
Dir
28/11:30pm 12.2 SE 15 21 1025.8 - 0.4 - Mostly clear 10 - - - -
28/11:19pm 13.2 SSE 15 26 1025.8 - 0.4 Showers Partly cloudy 10 - - - -
28/11:00pm 13.2 SE 10 15 1025.8 - 0.4 - Mostly clear 10 - - - -
28/10:30pm 13.7 S 14 18 1025.9 - 0.2 Showers Mostly clear 10 - - - -
28/10:00pm 13.7 SSE 14 17 1026.1 - 0.2 - Mostly clear 10 - - - -
28/09:30pm 13.8 SSE 13 17 1026.1 - 0.2 - Partly cloudy 10 - - - -
28/09:00pm 13.8 SSE 17 21 1025.9 F 0.2 Distant precip. Mostly cloudy 30 - - - -
28/08:30pm 13.9 SSE 15 20 1025.6 - 0.2 - Partly cloudy 10 - - - -
28/08:00pm 14.0 SSE 16 22 1025.5 - 0.2 - Partly cloudy 10 - - - -
28/07:30pm 14.2 SSE 15 19 1025.3 - 0.2 Showers Partly cloudy 10 - - - -
28/07:00pm 14.6 SSE 15 20 1025.2 - 0.2 - Partly cloudy 10 - - - -
28/06:30pm 14.5 SSE 16 21 1025.2 - 0.2 - Partly cloudy 10 - - - -
28/06:00pm 14.9 S 16 21 1025.1 R 0.2 Fine Mostly cloudy 40 - - - -
28/05:30pm 14.8 SSE 15 20 1025.0 - 0.2 - Mostly clear 10 - - - -
28/05:00pm 14.8 SSE 17 22 1025.0 - 0.2 - Mostly clear 10 - - - -

Other Formats:

Comma delimited format used in spreadsheet applications
http://www.bom.gov.au/fwo/IDT60701/IDT60701.94975.axf

JavaScript Object Notation format (JSON) in row-major order
http://www.bom.gov.au/fwo/IDT60701/IDT60701.94975.json